Thursday, April 26, 2018, 4:43 PM EDT
Back to Local

KMFV, Melfa / Accomack Airport

Location: Melfa, VA, United States Lat: 37.65
Local Time: 4:43 PM EDT (20:43 GMT) Lon: -75.767
Time Zone: US/Eastern Elev: 49 ft

Show me the last for .
Show Decoded

2018-04-26 16:15 METAR KMFV 262015Z AUTO 24006KT 10SM CLR 20/05 A2986 RMK AO2 T02030049 =
2018-04-26 15:55 METAR KMFV 261955Z AUTO 25004KT 10SM CLR 20/04 A2986 RMK AO2 T02000038 =
2018-04-26 15:35 METAR KMFV 261935Z AUTO 26007KT 10SM CLR 20/05 A2987 RMK AO2 T01970054 =
2018-04-26 15:15 METAR KMFV 261915Z AUTO 25004KT 10SM CLR 20/06 A2988 RMK AO2 T01980064 =
2018-04-26 14:55 METAR KMFV 261855Z AUTO 30006KT 10SM SCT046 20/07 A2988 RMK AO2 T01950073 =
2018-04-26 14:35 METAR KMFV 261835Z AUTO 31007KT 10SM BKN048 19/07 A2988 RMK AO2 T01870065 =
2018-04-26 14:15 METAR KMFV 261815Z AUTO 31007KT 10SM SCT048 18/06 A2989 RMK AO2 T01810057 =
2018-04-26 13:55 METAR KMFV 261755Z AUTO 30008KT 10SM SCT048 18/05 A2989 RMK AO2 T01780049 10179
                 20129 =
2018-04-26 13:35 METAR KMFV 261735Z AUTO 31008KT 10SM SCT048 18/05 A2989 RMK AO2 T01750050 =
2018-04-26 13:15 METAR KMFV 261715Z AUTO 30006KT 10SM BKN048 17/05 A2989 RMK AO2 T01700047 =
2018-04-26 12:55 METAR KMFV 261655Z AUTO 29009KT 10SM SCT048 16/05 A2989 RMK AO2 T01640050 =
2018-04-26 12:35 METAR KMFV 261635Z AUTO 26009KT 10SM CLR 16/07 A2989 RMK AO2 T01550065 =
2018-04-26 12:15 METAR KMFV 261615Z AUTO 29008KT 10SM CLR 16/06 A2989 RMK AO2 T01550062 =
2018-04-26 11:55 METAR KMFV 261555Z AUTO 32008G14KT 10SM CLR 15/07 A2989 RMK AO2 T01490065 =
2018-04-26 11:35 METAR KMFV 261535Z AUTO 30012KT 280V340 10SM CLR 15/07 A2989 RMK AO2 T01530068 =
2018-04-26 11:15 METAR KMFV 261515Z AUTO 31011G14KT 10SM CLR 16/07 A2989 RMK AO2 T01570069 =
2018-04-26 10:55 METAR KMFV 261455Z AUTO 32011KT 10SM CLR 15/06 A2988 RMK AO2 T01450061 =
2018-04-26 10:35 METAR KMFV 261435Z AUTO 31009G15KT 10SM CLR 15/06 A2988 RMK AO2 T01490064 =
2018-04-26 10:15 METAR KMFV 261415Z AUTO 31013G17KT 10SM CLR 14/06 A2989 RMK AO2 T01420058 =
2018-04-26 09:55 METAR KMFV 261355Z AUTO 32010G16KT 290V360 10SM CLR 15/07 A2988 RMK AO2
                 T01460070 =
2018-04-26 09:35 METAR KMFV 261335Z AUTO 32012G18KT 10SM CLR 13/06 A2988 RMK AO2 T01320062 =
2018-04-26 09:15 METAR KMFV 261315Z AUTO 31014G19KT 10SM CLR 13/07 A2988 RMK AO2 T01340066 =
2018-04-26 08:55 METAR KMFV 261255Z AUTO 31012G15KT 10SM CLR 14/08 A2987 RMK AO2 T01400079 =
2018-04-26 08:35 METAR KMFV 261235Z AUTO 32008G15KT 10SM CLR 13/07 A2987 RMK AO2 T01300067 =
2018-04-26 08:15 METAR KMFV 261215Z AUTO 31009G18KT 290V350 10SM CLR 13/08 A2986 RMK AO2
                 T01300075 =
2018-04-26 07:55 METAR KMFV 261155Z AUTO 31010G16KT 10SM CLR 13/08 A2985 RMK AO2 70002 T01300081
                 10155 20125 =
2018-04-26 07:35 METAR KMFV 261135Z AUTO 31012G15KT 10SM CLR 13/09 A2985 RMK AO2 T01310087 =
2018-04-26 07:15 METAR KMFV 261115Z AUTO 31008KT 10SM CLR 13/09 A2984 RMK AO2 T01290092 =
2018-04-26 06:55 METAR KMFV 261055Z AUTO 31009KT 10SM CLR 13/09 A2983 RMK AO2 T01260090 =
2018-04-26 06:35 METAR KMFV 261035Z AUTO 30011KT 10SM SCT065 13/09 A2982 RMK AO2 T01260091 =
2018-04-26 06:15 METAR KMFV 261015Z AUTO 31009KT 10SM BKN065 13/10 A2981 RMK AO2 T01260099 =
2018-04-26 05:55 METAR KMFV 260955Z AUTO 32007G14KT 10SM BKN065 13/10 A2980 RMK AO2 T01320104 =
2018-04-26 05:35 METAR KMFV 260935Z AUTO 31011KT 10SM CLR 14/11 A2979 RMK AO2 T01350112 PNO =
2018-04-26 05:15 METAR KMFV 260915Z AUTO 30010KT 10SM CLR 14/12 A2978 RMK AO2 T01370115 =
2018-04-26 04:55 METAR KMFV 260855Z AUTO 32007KT 10SM CLR 14/12 A2977 RMK AO2 T01350121 =
2018-04-26 04:35 METAR KMFV 260835Z AUTO 31009KT 10SM CLR 14/12 A2978 RMK AO2 T01380122 =
2018-04-26 04:15 METAR KMFV 260815Z AUTO 31009G14KT 10SM CLR 14/13 A2978 RMK AO2 T01410126 =
2018-04-26 03:55 METAR KMFV 260755Z AUTO 30007KT 10SM CLR 14/13 A2977 RMK AO2 LTG DSNT E
                 T01410128 =
2018-04-26 03:35 METAR KMFV 260735Z AUTO 30011G17KT 10SM CLR 15/13 A2976 RMK AO2 T01470130 =
2018-04-26 03:15 METAR KMFV 260715Z AUTO 30013G17KT 10SM CLR 15/14 A2975 RMK AO2 T01490135 =
2018-04-26 02:55 METAR KMFV 260655Z AUTO 29009KT 10SM SCT050 15/14 A2974 RMK AO2 T01510135 =
2018-04-26 02:35 METAR KMFV 260635Z AUTO 28009KT 10SM OVC050 16/14 A2973 RMK AO2 T01550142 =
2018-04-26 02:15 METAR KMFV 260615Z AUTO 29006KT 10SM OVC050 15/14 A2973 RMK AO2 T01520142 =
2018-04-26 01:55 METAR KMFV 260555Z AUTO 29008KT 10SM BKN050 15/14 A2973 RMK AO2 60002 T01500142
                 10160 20148 =
2018-04-26 01:35 METAR KMFV 260535Z AUTO 29006KT 10SM SCT045 15/14 A2973 RMK AO2 T01500141 =
2018-04-26 01:15 METAR KMFV 260515Z AUTO 28006KT 10SM SCT045 15/14 A2972 RMK AO2 T01480141 =
2018-04-26 00:55 METAR KMFV 260455Z AUTO 28006KT 10SM CLR 15/14 A2972 RMK AO2 T01480142 402110132
                 =
2018-04-26 00:35 METAR KMFV 260435Z AUTO 28006KT 10SM CLR 15/14 A2972 RMK AO2 T01480142 =
2018-04-26 00:15 METAR KMFV 260415Z AUTO 28006KT 10SM SCT060 15/14 A2972 RMK AO2 T01510143 =
2018-04-25 23:55 METAR KMFV 260355Z AUTO 30009KT 10SM OVC060 16/15 A2972 RMK AO2 T01550146 =
2018-04-25 23:35 METAR KMFV 260335Z AUTO 31008KT 10SM OVC050 16/15 A2971 RMK AO2 T01550145 =
2018-04-25 23:15 METAR KMFV 260315Z AUTO 30009G19KT 10SM SCT009 OVC046 16/15 A2972 RMK AO2
                 T01550147 =
2018-04-25 22:55 METAR KMFV 260255Z AUTO 28009KT 10SM SCT004 SCT034 BKN042 16/15 A2972 RMK AO2
                 P0002 60002 T01550150 =
2018-04-25 22:35 METAR KMFV 260235Z AUTO 28006KT 10SM SCT004 BKN018 OVC031 16/15 A2971 RMK AO2
                 LTG DSNT SE P0002 T01550151 =
2018-04-25 22:15 METAR KMFV 260215Z AUTO 28007KT 7SM -RA SCT006 BKN014 OVC070 16/15 A2972 RMK AO2
                 P0001 T01550150 =
2018-04-25 21:55 METAR KMFV 260155Z AUTO 27005KT 10SM -DZ OVC014 16/15 A2973 RMK AO2 LTG DSNT NW
                 T01560149 =
2018-04-25 21:35 METAR KMFV 260135Z AUTO 29007KT 10SM SCT007 OVC014 16/15 A2973 RMK AO2 LTG DSNT
                 SE T01580150 =
2018-04-25 21:15 METAR KMFV 260115Z AUTO 28006KT 10SM OVC007 16/15 A2972 RMK AO2 LTG DSNT SE
                 T01600151 =
2018-04-25 20:55 METAR KMFV 260055Z AUTO 29006KT 7SM BKN007 OVC013 16/15 A2972 RMK AO2 T01580152
                 =
2018-04-25 20:35 METAR KMFV 260035Z AUTO 29005KT 10SM -DZ BKN009 BKN021 OVC070 16/15 A2971 RMK
                 AO2 LTG DSNT SE T01560150 =
2018-04-25 20:15 METAR KMFV 260015Z AUTO 30004KT 10SM SCT007 BKN012 OVC021 16/15 A2969 RMK AO2
                 T01560147 =
2018-04-25 19:55 METAR KMFV 252355Z AUTO 30005KT 10SM OVC012 16/15 A2969 RMK AO2 LTG DSNT SE
                 T01600147 10211 20160 =
2018-04-25 19:35 METAR KMFV 252335Z AUTO 30005KT 10SM SCT012 BKN100 16/15 A2969 RMK AO2 LTG DSNT
                 SE T01630150 =
2018-04-25 19:15 METAR KMFV 252315Z AUTO 31003KT 10SM SCT019 SCT050 BKN110 17/15 A2968 RMK AO2
                 LTG DSNT E AND SE T01680151 =
2018-04-25 18:55 METAR KMFV 252255Z AUTO 30006KT 10SM SCT021 BKN041 OVC100 18/15 A2968 RMK AO2
                 T01750154 =
2018-04-25 18:35 METAR KMFV 252235Z AUTO 00000KT 10SM SCT021 OVC030 18/16 A2967 RMK AO2 LTG DSNT
                 SE AND SW T01770155 =
2018-04-25 18:15 METAR KMFV 252215Z AUTO 22003KT 10SM VCTS OVC028 18/15 A2967 RMK AO2 LTG DSNT E
                 THRU S T01800152 =
2018-04-25 17:55 METAR KMFV 252155Z AUTO 28006KT 10SM OVC028 19/15 A2967 RMK AO2 LTG DSNT S
                 T01850149 =
2018-04-25 17:35 METAR KMFV 252135Z AUTO 29004KT 10SM OVC028 19/15 A2967 RMK AO2 LTG DSNT S
                 T01910148 =
2018-04-25 17:15 METAR KMFV 252115Z AUTO 29005KT 10SM OVC030 20/15 A2966 RMK AO2 LTG DSNT S
                 T01950150 =
2018-04-25 16:55 METAR KMFV 252055Z AUTO 31007KT 10SM OVC028 20/15 A2966 RMK AO2 LTG DSNT E THRU
                 SW T02010152 =

Support USWX by starting your Amazon purchase here.